sensor_id;sensor_type;location;lat;lon;timestamp;P1;durP1;ratioP1;P2;durP2;ratioP2
29938;SDS011;16799;50.844;5.304;2022-07-23T00:00:04;13.93;;;9.10;;
29938;SDS011;16799;50.844;5.304;2022-07-23T00:02:31;16.47;;;10.43;;
29938;SDS011;16799;50.844;5.304;2022-07-23T00:04:56;14.40;;;12.00;;
29938;SDS011;16799;50.844;5.304;2022-07-23T00:07:22;13.37;;;9.57;;
29938;SDS011;16799;50.844;5.304;2022-07-23T00:09:48;14.07;;;9.20;;
29938;SDS011;16799;50.844;5.304;2022-07-23T00:12:13;14.40;;;9.67;;
29938;SDS011;16799;50.844;5.304;2022-07-23T00:14:39;10.90;;;9.80;;
29938;SDS011;16799;50.844;5.304;2022-07-23T00:17:04;11.93;;;9.70;;
29938;SDS011;16799;50.844;5.304;2022-07-23T00:19:30;13.40;;;10.97;;
29938;SDS011;16799;50.844;5.304;2022-07-23T00:21:56;12.23;;;11.00;;
29938;SDS011;16799;50.844;5.304;2022-07-23T00:24:22;12.63;;;9.57;;
29938;SDS011;16799;50.844;5.304;2022-07-23T00:26:47;12.87;;;9.70;;
29938;SDS011;16799;50.844;5.304;2022-07-23T00:29:13;12.53;;;9.70;;
29938;SDS011;16799;50.844;5.304;2022-07-23T00:31:39;14.77;;;12.20;;
29938;SDS011;16799;50.844;5.304;2022-07-23T00:34:04;14.33;;;10.93;;
29938;SDS011;16799;50.844;5.304;2022-07-23T00:36:30;12.83;;;11.13;;
29938;SDS011;16799;50.844;5.304;2022-07-23T00:38:58;13.53;;;9.57;;
29938;SDS011;16799;50.844;5.304;2022-07-23T00:41:24;10.57;;;9.57;;
29938;SDS011;16799;50.844;5.304;2022-07-23T00:43:49;9.73;;;8.80;;
29938;SDS011;16799;50.844;5.304;2022-07-23T00:46:19;15.47;;;10.03;;
29938;SDS011;16799;50.844;5.304;2022-07-23T00:48:45;11.70;;;10.50;;
29938;SDS011;16799;50.844;5.304;2022-07-23T00:51:11;9.53;;;8.53;;
29938;SDS011;16799;50.844;5.304;2022-07-23T00:53:36;9.47;;;8.47;;
29938;SDS011;16799;50.844;5.304;2022-07-23T00:56:02;10.90;;;7.53;;
29938;SDS011;16799;50.844;5.304;2022-07-23T00:58:28;7.97;;;7.00;;
29938;SDS011;16799;50.844;5.304;2022-07-23T01:00:54;11.20;;;8.83;;
29938;SDS011;16799;50.844;5.304;2022-07-23T01:03:19;10.00;;;8.40;;
29938;SDS011;16799;50.844;5.304;2022-07-23T01:05:45;9.20;;;8.40;;
29938;SDS011;16799;50.844;5.304;2022-07-23T01:08:11;11.00;;;8.47;;
29938;SDS011;16799;50.844;5.304;2022-07-23T01:10:37;13.73;;;8.33;;
29938;SDS011;16799;50.844;5.304;2022-07-23T01:13:05;9.87;;;7.83;;
29938;SDS011;16799;50.844;5.304;2022-07-23T01:15:33;15.93;;;9.23;;
29938;SDS011;16799;50.844;5.304;2022-07-23T01:18:00;15.30;;;10.87;;
29938;SDS011;16799;50.844;5.304;2022-07-23T01:20:26;12.83;;;11.50;;
29938;SDS011;16799;50.844;5.304;2022-07-23T01:22:52;10.90;;;9.90;;
29938;SDS011;16799;50.844;5.304;2022-07-23T01:25:18;12.57;;;11.23;;
29938;SDS011;16799;50.844;5.304;2022-07-23T01:27:44;14.93;;;11.97;;
29938;SDS011;16799;50.844;5.304;2022-07-23T01:30:10;14.17;;;12.67;;
29938;SDS011;16799;50.844;5.304;2022-07-23T01:32:37;11.97;;;10.83;;
29938;SDS011;16799;50.844;5.304;2022-07-23T01:35:03;14.40;;;11.23;;
29938;SDS011;16799;50.844;5.304;2022-07-23T01:37:30;16.77;;;11.00;;
29938;SDS011;16799;50.844;5.304;2022-07-23T01:39:56;22.90;;;11.63;;
29938;SDS011;16799;50.844;5.304;2022-07-23T01:42:21;14.70;;;11.47;;
29938;SDS011;16799;50.844;5.304;2022-07-23T01:44:48;21.73;;;11.17;;
29938;SDS011;16799;50.844;5.304;2022-07-23T01:47:14;14.53;;;10.87;;
29938;SDS011;16799;50.844;5.304;2022-07-23T01:49:39;12.00;;;10.00;;
29938;SDS011;16799;50.844;5.304;2022-07-23T01:52:05;14.00;;;10.30;;
29938;SDS011;16799;50.844;5.304;2022-07-23T01:54:34;12.10;;;10.70;;
29938;SDS011;16799;50.844;5.304;2022-07-23T01:57:00;17.53;;;12.00;;
29938;SDS011;16799;50.844;5.304;2022-07-23T01:59:26;13.40;;;10.50;;
29938;SDS011;16799;50.844;5.304;2022-07-23T02:01:53;11.10;;;8.60;;
29938;SDS011;16799;50.844;5.304;2022-07-23T02:04:19;9.03;;;8.10;;
29938;SDS011;16799;50.844;5.304;2022-07-23T02:06:46;11.20;;;9.17;;
29938;SDS011;16799;50.844;5.304;2022-07-23T02:09:12;10.63;;;9.27;;
29938;SDS011;16799;50.844;5.304;2022-07-23T02:11:37;8.10;;;7.27;;
29938;SDS011;16799;50.844;5.304;2022-07-23T02:14:03;8.87;;;7.40;;
29938;SDS011;16799;50.844;5.304;2022-07-23T02:16:29;11.20;;;9.60;;
29938;SDS011;16799;50.844;5.304;2022-07-23T02:18:55;11.93;;;10.63;;
29938;SDS011;16799;50.844;5.304;2022-07-23T02:21:20;12.87;;;11.60;;
29938;SDS011;16799;50.844;5.304;2022-07-23T02:23:46;15.43;;;11.67;;
29938;SDS011;16799;50.844;5.304;2022-07-23T02:26:12;18.70;;;12.13;;
29938;SDS011;16799;50.844;5.304;2022-07-23T02:28:37;22.37;;;10.53;;
29938;SDS011;16799;50.844;5.304;2022-07-23T02:31:03;11.07;;;10.07;;
29938;SDS011;16799;50.844;5.304;2022-07-23T02:33:29;10.80;;;8.40;;
29938;SDS011;16799;50.844;5.304;2022-07-23T02:35:55;9.87;;;8.27;;
29938;SDS011;16799;50.844;5.304;2022-07-23T02:38:20;12.93;;;9.00;;
29938;SDS011;16799;50.844;5.304;2022-07-23T02:40:46;21.50;;;10.47;;
29938;SDS011;16799;50.844;5.304;2022-07-23T02:43:12;11.20;;;8.70;;
29938;SDS011;16799;50.844;5.304;2022-07-23T02:45:38;12.60;;;10.77;;
29938;SDS011;16799;50.844;5.304;2022-07-23T02:48:03;22.17;;;13.37;;
29938;SDS011;16799;50.844;5.304;2022-07-23T02:50:29;15.33;;;11.90;;
29938;SDS011;16799;50.844;5.304;2022-07-23T02:52:55;15.97;;;12.17;;
29938;SDS011;16799;50.844;5.304;2022-07-23T02:55:20;16.57;;;12.57;;
29938;SDS011;16799;50.844;5.304;2022-07-23T02:57:46;18.97;;;12.93;;
29938;SDS011;16799;50.844;5.304;2022-07-23T03:00:11;10.70;;;9.50;;
29938;SDS011;16799;50.844;5.304;2022-07-23T03:02:37;12.17;;;8.90;;
29938;SDS011;16799;50.844;5.304;2022-07-23T03:05:03;10.73;;;8.80;;
29938;SDS011;16799;50.844;5.304;2022-07-23T03:07:29;12.60;;;9.13;;
29938;SDS011;16799;50.844;5.304;2022-07-23T03:09:55;14.20;;;11.53;;
29938;SDS011;16799;50.844;5.304;2022-07-23T03:12:20;12.50;;;10.00;;
29938;SDS011;16799;50.844;5.304;2022-07-23T03:14:46;13.97;;;12.27;;
29938;SDS011;16799;50.844;5.304;2022-07-23T03:17:12;11.87;;;9.73;;
29938;SDS011;16799;50.844;5.304;2022-07-23T03:19:37;13.60;;;11.97;;
29938;SDS011;16799;50.844;5.304;2022-07-23T03:22:03;20.10;;;12.20;;
29938;SDS011;16799;50.844;5.304;2022-07-23T03:24:29;10.90;;;9.80;;
29938;SDS011;16799;50.844;5.304;2022-07-23T03:27:14;15.80;;;11.30;;
29938;SDS011;16799;50.844;5.304;2022-07-23T03:29:39;12.63;;;11.43;;
29938;SDS011;16799;50.844;5.304;2022-07-23T03:32:05;19.03;;;11.50;;
29938;SDS011;16799;50.844;5.304;2022-07-23T03:34:31;12.07;;;10.97;;
29938;SDS011;16799;50.844;5.304;2022-07-23T03:36:56;22.77;;;10.90;;
29938;SDS011;16799;50.844;5.304;2022-07-23T03:39:22;11.50;;;9.30;;
29938;SDS011;16799;50.844;5.304;2022-07-23T03:41:48;10.87;;;9.27;;
29938;SDS011;16799;50.844;5.304;2022-07-23T03:44:13;13.70;;;8.90;;
29938;SDS011;16799;50.844;5.304;2022-07-23T03:46:39;10.77;;;9.70;;
29938;SDS011;16799;50.844;5.304;2022-07-23T03:49:05;10.60;;;9.40;;
29938;SDS011;16799;50.844;5.304;2022-07-23T03:51:30;12.73;;;10.33;;
29938;SDS011;16799;50.844;5.304;2022-07-23T03:53:57;15.43;;;10.63;;
29938;SDS011;16799;50.844;5.304;2022-07-23T03:56:22;13.03;;;11.63;;
29938;SDS011;16799;50.844;5.304;2022-07-23T03:58:48;13.50;;;10.67;;
29938;SDS011;16799;50.844;5.304;2022-07-23T04:01:14;12.00;;;10.90;;
29938;SDS011;16799;50.844;5.304;2022-07-23T04:03:40;22.90;;;11.67;;
29938;SDS011;16799;50.844;5.304;2022-07-23T04:06:05;16.73;;;10.83;;
29938;SDS011;16799;50.844;5.304;2022-07-23T04:08:32;12.20;;;9.60;;
29938;SDS011;16799;50.844;5.304;2022-07-23T04:10:57;18.20;;;11.87;;
29938;SDS011;16799;50.844;5.304;2022-07-23T04:13:23;19.00;;;11.70;;
29938;SDS011;16799;50.844;5.304;2022-07-23T04:15:49;15.90;;;10.90;;
29938;SDS011;16799;50.844;5.304;2022-07-23T04:18:16;20.93;;;10.57;;
29938;SDS011;16799;50.844;5.304;2022-07-23T04:20:42;16.00;;;10.87;;
29938;SDS011;16799;50.844;5.304;2022-07-23T04:23:09;19.30;;;11.60;;
29938;SDS011;16799;50.844;5.304;2022-07-23T04:25:34;12.00;;;10.97;;
29938;SDS011;16799;50.844;5.304;2022-07-23T04:28:01;14.47;;;11.83;;
29938;SDS011;16799;50.844;5.304;2022-07-23T04:30:26;16.20;;;10.40;;
29938;SDS011;16799;50.844;5.304;2022-07-23T04:32:52;13.83;;;9.80;;
29938;SDS011;16799;50.844;5.304;2022-07-23T04:35:18;17.40;;;11.17;;
29938;SDS011;16799;50.844;5.304;2022-07-23T04:37:44;15.63;;;12.10;;
29938;SDS011;16799;50.844;5.304;2022-07-23T04:40:10;16.40;;;12.57;;
29938;SDS011;16799;50.844;5.304;2022-07-23T04:42:36;19.97;;;14.40;;
29938;SDS011;16799;50.844;5.304;2022-07-23T04:45:02;13.70;;;12.30;;
29938;SDS011;16799;50.844;5.304;2022-07-23T04:47:29;16.73;;;11.10;;
29938;SDS011;16799;50.844;5.304;2022-07-23T04:49:55;12.80;;;11.07;;
29938;SDS011;16799;50.844;5.304;2022-07-23T04:52:21;14.73;;;13.30;;
29938;SDS011;16799;50.844;5.304;2022-07-23T04:54:47;21.00;;;12.00;;
29938;SDS011;16799;50.844;5.304;2022-07-23T04:57:13;17.07;;;12.63;;
29938;SDS011;16799;50.844;5.304;2022-07-23T04:59:38;18.50;;;12.47;;
29938;SDS011;16799;50.844;5.304;2022-07-23T05:02:04;27.67;;;12.73;;
29938;SDS011;16799;50.844;5.304;2022-07-23T05:04:30;28.23;;;13.90;;
29938;SDS011;16799;50.844;5.304;2022-07-23T05:06:56;20.53;;;13.30;;
29938;SDS011;16799;50.844;5.304;2022-07-23T05:09:22;19.23;;;11.60;;
29938;SDS011;16799;50.844;5.304;2022-07-23T05:11:47;21.20;;;13.13;;
29938;SDS011;16799;50.844;5.304;2022-07-23T05:14:13;14.73;;;12.87;;
29938;SDS011;16799;50.844;5.304;2022-07-23T05:16:39;13.87;;;12.47;;
29938;SDS011;16799;50.844;5.304;2022-07-23T05:19:04;17.20;;;12.40;;
29938;SDS011;16799;50.844;5.304;2022-07-23T05:21:30;17.33;;;11.90;;
29938;SDS011;16799;50.844;5.304;2022-07-23T05:23:56;13.13;;;11.70;;
29938;SDS011;16799;50.844;5.304;2022-07-23T05:26:22;16.87;;;11.80;;
29938;SDS011;16799;50.844;5.304;2022-07-23T05:28:47;14.20;;;11.40;;
29938;SDS011;16799;50.844;5.304;2022-07-23T05:31:13;19.40;;;14.17;;
29938;SDS011;16799;50.844;5.304;2022-07-23T05:33:39;15.00;;;13.60;;
29938;SDS011;16799;50.844;5.304;2022-07-23T05:36:05;19.47;;;14.03;;
29938;SDS011;16799;50.844;5.304;2022-07-23T05:38:31;19.73;;;13.53;;
29938;SDS011;16799;50.844;5.304;2022-07-23T05:40:57;15.97;;;14.13;;
29938;SDS011;16799;50.844;5.304;2022-07-23T05:43:23;23.23;;;15.73;;
29938;SDS011;16799;50.844;5.304;2022-07-23T05:45:49;23.47;;;15.03;;
29938;SDS011;16799;50.844;5.304;2022-07-23T05:48:15;20.93;;;13.50;;
29938;SDS011;16799;50.844;5.304;2022-07-23T05:50:40;16.10;;;13.90;;
29938;SDS011;16799;50.844;5.304;2022-07-23T05:53:06;13.30;;;11.97;;
29938;SDS011;16799;50.844;5.304;2022-07-23T05:55:32;15.90;;;13.30;;
29938;SDS011;16799;50.844;5.304;2022-07-23T05:57:58;19.67;;;15.40;;
29938;SDS011;16799;50.844;5.304;2022-07-23T06:00:24;19.07;;;13.50;;
29938;SDS011;16799;50.844;5.304;2022-07-23T06:02:51;15.93;;;13.23;;
29938;SDS011;16799;50.844;5.304;2022-07-23T06:05:17;16.50;;;13.17;;
29938;SDS011;16799;50.844;5.304;2022-07-23T06:07:43;16.63;;;13.53;;
29938;SDS011;16799;50.844;5.304;2022-07-23T06:10:08;27.13;;;13.70;;
29938;SDS011;16799;50.844;5.304;2022-07-23T06:12:35;14.03;;;12.53;;
29938;SDS011;16799;50.844;5.304;2022-07-23T06:15:00;15.13;;;13.53;;
29938;SDS011;16799;50.844;5.304;2022-07-23T06:17:27;15.93;;;14.27;;
29938;SDS011;16799;50.844;5.304;2022-07-23T06:19:53;13.73;;;12.53;;
29938;SDS011;16799;50.844;5.304;2022-07-23T06:22:19;18.50;;;13.07;;
29938;SDS011;16799;50.844;5.304;2022-07-23T06:24:46;14.23;;;12.93;;
29938;SDS011;16799;50.844;5.304;2022-07-23T06:27:11;23.93;;;14.67;;
29938;SDS011;16799;50.844;5.304;2022-07-23T06:29:37;15.90;;;13.23;;
29938;SDS011;16799;50.844;5.304;2022-07-23T06:32:03;16.90;;;14.30;;
29938;SDS011;16799;50.844;5.304;2022-07-23T06:34:28;15.60;;;13.80;;
29938;SDS011;16799;50.844;5.304;2022-07-23T06:36:54;18.90;;;14.77;;
29938;SDS011;16799;50.844;5.304;2022-07-23T06:39:20;17.13;;;14.37;;
29938;SDS011;16799;50.844;5.304;2022-07-23T06:41:45;16.87;;;13.70;;
29938;SDS011;16799;50.844;5.304;2022-07-23T06:44:11;17.83;;;12.77;;
29938;SDS011;16799;50.844;5.304;2022-07-23T06:46:36;14.30;;;12.83;;
29938;SDS011;16799;50.844;5.304;2022-07-23T06:49:02;13.60;;;12.10;;
29938;SDS011;16799;50.844;5.304;2022-07-23T06:51:29;14.93;;;12.50;;
29938;SDS011;16799;50.844;5.304;2022-07-23T06:53:55;18.20;;;14.13;;
29938;SDS011;16799;50.844;5.304;2022-07-23T06:56:20;15.13;;;13.53;;
29938;SDS011;16799;50.844;5.304;2022-07-23T06:58:46;21.50;;;13.53;;
29938;SDS011;16799;50.844;5.304;2022-07-23T07:01:12;15.27;;;13.30;;
29938;SDS011;16799;50.844;5.304;2022-07-23T07:03:38;16.80;;;15.20;;
29938;SDS011;16799;50.844;5.304;2022-07-23T07:06:03;14.10;;;12.63;;
29938;SDS011;16799;50.844;5.304;2022-07-23T07:08:29;14.07;;;12.80;;
29938;SDS011;16799;50.844;5.304;2022-07-23T07:10:55;32.03;;;15.40;;
29938;SDS011;16799;50.844;5.304;2022-07-23T07:13:20;24.40;;;14.73;;
29938;SDS011;16799;50.844;5.304;2022-07-23T07:15:46;18.17;;;14.63;;
29938;SDS011;16799;50.844;5.304;2022-07-23T07:18:12;17.80;;;15.90;;
29938;SDS011;16799;50.844;5.304;2022-07-23T07:20:38;14.13;;;12.10;;
29938;SDS011;16799;50.844;5.304;2022-07-23T07:23:04;14.53;;;13.13;;
29938;SDS011;16799;50.844;5.304;2022-07-23T07:25:30;15.87;;;14.17;;
29938;SDS011;16799;50.844;5.304;2022-07-23T07:27:55;21.70;;;15.50;;
29938;SDS011;16799;50.844;5.304;2022-07-23T07:30:21;18.83;;;16.90;;
29938;SDS011;16799;50.844;5.304;2022-07-23T07:32:47;23.43;;;15.67;;
29938;SDS011;16799;50.844;5.304;2022-07-23T07:35:13;18.00;;;15.37;;
29938;SDS011;16799;50.844;5.304;2022-07-23T07:37:38;19.00;;;14.87;;
29938;SDS011;16799;50.844;5.304;2022-07-23T07:40:04;19.43;;;15.43;;
29938;SDS011;16799;50.844;5.304;2022-07-23T07:42:30;22.53;;;16.47;;
29938;SDS011;16799;50.844;5.304;2022-07-23T07:44:57;16.63;;;15.03;;
29938;SDS011;16799;50.844;5.304;2022-07-23T07:47:23;19.40;;;15.00;;
29938;SDS011;16799;50.844;5.304;2022-07-23T07:49:48;22.27;;;16.00;;
29938;SDS011;16799;50.844;5.304;2022-07-23T07:52:14;14.87;;;13.17;;
29938;SDS011;16799;50.844;5.304;2022-07-23T07:54:40;19.93;;;14.03;;
29938;SDS011;16799;50.844;5.304;2022-07-23T07:57:05;16.03;;;13.80;;
29938;SDS011;16799;50.844;5.304;2022-07-23T07:59:31;18.50;;;14.90;;
29938;SDS011;16799;50.844;5.304;2022-07-23T08:01:56;17.43;;;14.50;;
29938;SDS011;16799;50.844;5.304;2022-07-23T08:04:22;16.53;;;14.83;;
29938;SDS011;16799;50.844;5.304;2022-07-23T08:06:48;17.67;;;12.97;;
29938;SDS011;16799;50.844;5.304;2022-07-23T08:09:13;12.57;;;11.47;;
29938;SDS011;16799;50.844;5.304;2022-07-23T08:11:39;16.20;;;12.30;;
29938;SDS011;16799;50.844;5.304;2022-07-23T08:14:05;13.93;;;12.60;;
29938;SDS011;16799;50.844;5.304;2022-07-23T08:16:30;14.90;;;12.77;;
29938;SDS011;16799;50.844;5.304;2022-07-23T08:18:56;19.13;;;13.57;;
29938;SDS011;16799;50.844;5.304;2022-07-23T08:21:22;12.57;;;11.30;;
29938;SDS011;16799;50.844;5.304;2022-07-23T08:23:47;14.47;;;12.20;;
29938;SDS011;16799;50.844;5.304;2022-07-23T08:26:13;14.50;;;11.77;;
29938;SDS011;16799;50.844;5.304;2022-07-23T08:28:39;12.87;;;11.43;;
29938;SDS011;16799;50.844;5.304;2022-07-23T08:31:04;13.00;;;11.70;;
29938;SDS011;16799;50.844;5.304;2022-07-23T08:33:33;15.03;;;11.10;;
29938;SDS011;16799;50.844;5.304;2022-07-23T08:35:59;16.37;;;11.43;;
29938;SDS011;16799;50.844;5.304;2022-07-23T08:38:27;15.97;;;11.60;;
29938;SDS011;16799;50.844;5.304;2022-07-23T08:40:54;16.50;;;13.10;;
29938;SDS011;16799;50.844;5.304;2022-07-23T08:43:26;14.30;;;11.90;;
29938;SDS011;16799;50.844;5.304;2022-07-23T08:45:53;11.50;;;10.37;;
29938;SDS011;16799;50.844;5.304;2022-07-23T08:48:24;19.17;;;9.43;;
29938;SDS011;16799;50.844;5.304;2022-07-23T08:50:52;9.83;;;8.63;;
29938;SDS011;16799;50.844;5.304;2022-07-23T08:53:19;14.93;;;10.60;;
29938;SDS011;16799;50.844;5.304;2022-07-23T08:55:46;21.00;;;10.93;;
29938;SDS011;16799;50.844;5.304;2022-07-23T08:58:14;13.90;;;10.60;;
29938;SDS011;16799;50.844;5.304;2022-07-23T09:00:40;13.50;;;11.20;;
29938;SDS011;16799;50.844;5.304;2022-07-23T09:03:06;13.40;;;11.70;;
29938;SDS011;16799;50.844;5.304;2022-07-23T09:05:31;10.77;;;9.70;;
29938;SDS011;16799;50.844;5.304;2022-07-23T09:08:18;14.80;;;10.00;;
29938;SDS011;16799;50.844;5.304;2022-07-23T09:13:39;10.97;;;9.97;;
29938;SDS011;16799;50.844;5.304;2022-07-23T09:18:50;12.10;;;10.90;;
29938;SDS011;16799;50.844;5.304;2022-07-23T09:31:55;10.07;;;9.10;;
29938;SDS011;16799;50.844;5.304;2022-07-23T09:34:29;12.47;;;9.40;;
29938;SDS011;16799;50.844;5.304;2022-07-23T09:36:58;11.80;;;10.80;;
29938;SDS011;16799;50.844;5.304;2022-07-23T09:39:43;13.73;;;11.40;;
29938;SDS011;16799;50.844;5.304;2022-07-23T09:42:17;10.93;;;10.00;;
29938;SDS011;16799;50.844;5.304;2022-07-23T09:44:52;12.10;;;10.50;;
29938;SDS011;16799;50.844;5.304;2022-07-23T09:47:19;10.30;;;9.47;;
29938;SDS011;16799;50.844;5.304;2022-07-23T09:52:34;10.73;;;9.73;;
29938;SDS011;16799;50.844;5.304;2022-07-23T09:55:04;11.10;;;10.10;;
29938;SDS011;16799;50.844;5.304;2022-07-23T09:57:31;9.87;;;9.07;;
29938;SDS011;16799;50.844;5.304;2022-07-23T10:00:00;9.87;;;8.93;;
29938;SDS011;16799;50.844;5.304;2022-07-23T10:02:28;10.40;;;9.60;;
29938;SDS011;16799;50.844;5.304;2022-07-23T10:04:56;10.63;;;9.13;;
29938;SDS011;16799;50.844;5.304;2022-07-23T10:07:22;9.83;;;9.10;;
29938;SDS011;16799;50.844;5.304;2022-07-23T10:09:51;11.43;;;10.13;;
29938;SDS011;16799;50.844;5.304;2022-07-23T10:12:18;31.73;;;10.00;;
29938;SDS011;16799;50.844;5.304;2022-07-23T10:14:52;10.53;;;8.30;;
29938;SDS011;16799;50.844;5.304;2022-07-23T10:17:18;10.50;;;9.67;;
29938;SDS011;16799;50.844;5.304;2022-07-23T10:19:44;12.20;;;10.83;;
29938;SDS011;16799;50.844;5.304;2022-07-23T10:30:06;12.60;;;10.10;;
29938;SDS011;16799;50.844;5.304;2022-07-23T10:32:56;10.43;;;9.27;;
29938;SDS011;16799;50.844;5.304;2022-07-23T10:35:36;10.33;;;9.40;;
29938;SDS011;16799;50.844;5.304;2022-07-23T10:40:51;9.27;;;8.50;;
29938;SDS011;16799;50.844;5.304;2022-07-23T10:43:20;7.00;;;6.40;;
29938;SDS011;16799;50.844;5.304;2022-07-23T10:45:46;7.83;;;7.10;;
29938;SDS011;16799;50.844;5.304;2022-07-23T10:48:22;10.10;;;6.70;;
29938;SDS011;16799;50.844;5.304;2022-07-23T10:57:04;5.50;;;5.10;;
29938;SDS011;16799;50.844;5.304;2022-07-23T10:59:14;5.43;;;5.03;;
29938;SDS011;16799;50.844;5.304;2022-07-23T11:01:40;4.40;;;4.00;;
29938;SDS011;16799;50.844;5.304;2022-07-23T11:04:06;4.73;;;4.33;;
29938;SDS011;16799;50.844;5.304;2022-07-23T11:09:26;4.33;;;3.97;;
29938;SDS011;16799;50.844;5.304;2022-07-23T11:17:30;2.50;;;2.30;;
29938;SDS011;16799;50.844;5.304;2022-07-23T11:22:56;2.80;;;2.60;;
29938;SDS011;16799;50.844;5.304;2022-07-23T11:27:47;4.37;;;2.90;;
29938;SDS011;16799;50.844;5.304;2022-07-23T11:32:52;4.63;;;2.53;;
29938;SDS011;16799;50.844;5.304;2022-07-23T11:37:46;2.63;;;2.30;;
29938;SDS011;16799;50.844;5.304;2022-07-23T11:40:13;3.13;;;2.93;;
29938;SDS011;16799;50.844;5.304;2022-07-23T11:43:00;3.27;;;2.97;;
29938;SDS011;16799;50.844;5.304;2022-07-23T11:45:32;4.63;;;3.10;;
29938;SDS011;16799;50.844;5.304;2022-07-23T11:48:06;2.70;;;2.50;;
29938;SDS011;16799;50.844;5.304;2022-07-23T11:50:43;3.30;;;2.67;;
29938;SDS011;16799;50.844;5.304;2022-07-23T11:53:08;4.10;;;2.93;;
29938;SDS011;16799;50.844;5.304;2022-07-23T11:55:34;3.33;;;3.10;;
29938;SDS011;16799;50.844;5.304;2022-07-23T11:58:00;5.87;;;2.90;;
29938;SDS011;16799;50.844;5.304;2022-07-23T12:00:27;5.63;;;3.40;;
29938;SDS011;16799;50.844;5.304;2022-07-23T12:02:58;1.73;;;1.63;;
29938;SDS011;16799;50.844;5.304;2022-07-23T12:05:30;3.10;;;2.90;;
29938;SDS011;16799;50.844;5.304;2022-07-23T12:07:57;2.90;;;2.60;;
29938;SDS011;16799;50.844;5.304;2022-07-23T12:10:24;2.30;;;2.20;;
29938;SDS011;16799;50.844;5.304;2022-07-23T12:12:59;2.93;;;2.33;;
29938;SDS011;16799;50.844;5.304;2022-07-23T12:15:28;2.47;;;2.37;;
29938;SDS011;16799;50.844;5.304;2022-07-23T12:18:04;2.30;;;2.20;;
29938;SDS011;16799;50.844;5.304;2022-07-23T12:20:32;1.53;;;1.43;;
29938;SDS011;16799;50.844;5.304;2022-07-23T12:23:01;2.10;;;1.70;;
29938;SDS011;16799;50.844;5.304;2022-07-23T12:25:30;1.50;;;1.40;;
29938;SDS011;16799;50.844;5.304;2022-07-23T12:33:02;2.20;;;2.00;;
29938;SDS011;16799;50.844;5.304;2022-07-23T12:35:32;1.53;;;1.43;;
29938;SDS011;16799;50.844;5.304;2022-07-23T12:38:04;1.30;;;1.20;;
29938;SDS011;16799;50.844;5.304;2022-07-23T12:40:34;1.90;;;1.80;;
29938;SDS011;16799;50.844;5.304;2022-07-23T12:43:18;1.23;;;1.13;;
29938;SDS011;16799;50.844;5.304;2022-07-23T12:45:49;1.80;;;1.70;;
29938;SDS011;16799;50.844;5.304;2022-07-23T12:53:20;1.63;;;1.47;;
29938;SDS011;16799;50.844;5.304;2022-07-23T12:55:48;2.70;;;1.60;;
29938;SDS011;16799;50.844;5.304;2022-07-23T12:58:16;2.47;;;2.13;;
29938;SDS011;16799;50.844;5.304;2022-07-23T13:01:16;3.40;;;1.63;;
29938;SDS011;16799;50.844;5.304;2022-07-23T13:06:36;2.90;;;2.70;;
29938;SDS011;16799;50.844;5.304;2022-07-23T13:09:06;2.83;;;2.20;;
29938;SDS011;16799;50.844;5.304;2022-07-23T13:11:32;1.50;;;1.40;;
29938;SDS011;16799;50.844;5.304;2022-07-23T13:13:58;1.60;;;1.50;;
29938;SDS011;16799;50.844;5.304;2022-07-23T13:16:26;1.93;;;1.53;;
29938;SDS011;16799;50.844;5.304;2022-07-23T13:18:52;1.67;;;1.57;;
29938;SDS011;16799;50.844;5.304;2022-07-23T13:21:18;2.90;;;1.80;;
29938;SDS011;16799;50.844;5.304;2022-07-23T13:23:44;2.40;;;2.00;;
29938;SDS011;16799;50.844;5.304;2022-07-23T13:26:09;3.43;;;2.30;;
29938;SDS011;16799;50.844;5.304;2022-07-23T13:28:35;2.30;;;2.10;;
29938;SDS011;16799;50.844;5.304;2022-07-23T13:31:01;1.87;;;1.77;;
29938;SDS011;16799;50.844;5.304;2022-07-23T13:33:26;3.30;;;1.80;;
29938;SDS011;16799;50.844;5.304;2022-07-23T13:35:52;3.60;;;2.80;;
29938;SDS011;16799;50.844;5.304;2022-07-23T13:38:18;2.40;;;2.27;;
29938;SDS011;16799;50.844;5.304;2022-07-23T13:40:45;2.30;;;2.10;;
29938;SDS011;16799;50.844;5.304;2022-07-23T13:43:15;3.87;;;1.70;;
29938;SDS011;16799;50.844;5.304;2022-07-23T13:45:42;1.53;;;1.40;;
29938;SDS011;16799;50.844;5.304;2022-07-23T13:48:09;1.70;;;1.60;;
29938;SDS011;16799;50.844;5.304;2022-07-23T13:50:36;2.50;;;2.00;;
29938;SDS011;16799;50.844;5.304;2022-07-23T13:53:03;11.40;;;1.93;;
29938;SDS011;16799;50.844;5.304;2022-07-23T13:55:31;2.10;;;1.30;;
29938;SDS011;16799;50.844;5.304;2022-07-23T13:57:57;1.90;;;1.70;;
29938;SDS011;16799;50.844;5.304;2022-07-23T14:00:23;2.57;;;2.43;;
29938;SDS011;16799;50.844;5.304;2022-07-23T14:02:50;2.70;;;2.50;;
29938;SDS011;16799;50.844;5.304;2022-07-23T14:05:15;2.23;;;2.10;;
29938;SDS011;16799;50.844;5.304;2022-07-23T14:07:41;3.50;;;2.00;;
29938;SDS011;16799;50.844;5.304;2022-07-23T14:10:09;1.60;;;1.50;;
29938;SDS011;16799;50.844;5.304;2022-07-23T14:12:36;3.10;;;2.37;;
29938;SDS011;16799;50.844;5.304;2022-07-23T14:15:03;1.97;;;1.87;;
29938;SDS011;16799;50.844;5.304;2022-07-23T14:17:30;2.57;;;2.47;;
29938;SDS011;16799;50.844;5.304;2022-07-23T14:19:56;2.30;;;2.10;;
29938;SDS011;16799;50.844;5.304;2022-07-23T14:22:22;3.10;;;2.50;;
29938;SDS011;16799;50.844;5.304;2022-07-23T14:24:48;2.23;;;1.80;;
29938;SDS011;16799;50.844;5.304;2022-07-23T14:27:14;2.20;;;2.10;;
29938;SDS011;16799;50.844;5.304;2022-07-23T14:29:40;11.13;;;2.60;;
29938;SDS011;16799;50.844;5.304;2022-07-23T14:32:06;1.67;;;1.57;;
29938;SDS011;16799;50.844;5.304;2022-07-23T14:34:31;2.63;;;1.77;;
29938;SDS011;16799;50.844;5.304;2022-07-23T14:36:57;19.77;;;2.30;;
29938;SDS011;16799;50.844;5.304;2022-07-23T14:39:24;2.40;;;2.23;;
29938;SDS011;16799;50.844;5.304;2022-07-23T14:41:50;3.23;;;2.37;;
29938;SDS011;16799;50.844;5.304;2022-07-23T14:44:16;4.40;;;2.67;;
29938;SDS011;16799;50.844;5.304;2022-07-23T14:46:42;2.40;;;2.30;;
29938;SDS011;16799;50.844;5.304;2022-07-23T14:49:07;2.67;;;2.43;;
29938;SDS011;16799;50.844;5.304;2022-07-23T14:51:33;2.33;;;2.13;;
29938;SDS011;16799;50.844;5.304;2022-07-23T14:53:59;1.83;;;1.73;;
29938;SDS011;16799;50.844;5.304;2022-07-23T14:56:25;2.43;;;2.33;;
29938;SDS011;16799;50.844;5.304;2022-07-23T14:58:50;3.10;;;2.80;;
29938;SDS011;16799;50.844;5.304;2022-07-23T15:01:16;6.93;;;2.30;;
29938;SDS011;16799;50.844;5.304;2022-07-23T15:03:42;2.50;;;2.30;;
29938;SDS011;16799;50.844;5.304;2022-07-23T15:06:07;4.07;;;2.90;;
29938;SDS011;16799;50.844;5.304;2022-07-23T15:08:33;2.40;;;2.20;;
29938;SDS011;16799;50.844;5.304;2022-07-23T15:10:59;2.37;;;2.27;;
29938;SDS011;16799;50.844;5.304;2022-07-23T15:13:25;2.30;;;2.20;;
29938;SDS011;16799;50.844;5.304;2022-07-23T15:15:51;3.93;;;2.47;;
29938;SDS011;16799;50.844;5.304;2022-07-23T15:18:17;2.90;;;2.70;;
29938;SDS011;16799;50.844;5.304;2022-07-23T15:20:43;2.43;;;1.87;;
29938;SDS011;16799;50.844;5.304;2022-07-23T15:23:08;3.33;;;2.30;;
29938;SDS011;16799;50.844;5.304;2022-07-23T15:25:34;2.23;;;2.03;;
29938;SDS011;16799;50.844;5.304;2022-07-23T15:28:00;2.13;;;1.60;;
29938;SDS011;16799;50.844;5.304;2022-07-23T15:30:26;3.37;;;2.30;;
29938;SDS011;16799;50.844;5.304;2022-07-23T15:32:53;2.53;;;2.37;;
29938;SDS011;16799;50.844;5.304;2022-07-23T15:35:18;2.40;;;2.17;;